sensor_id;sensor_type;location;lat;lon;timestamp;P1;durP1;ratioP1;P2;durP2;ratioP2
78148;SDS011;67396;42.664;23.382;2024-02-23T00:01:02;16.10;;;8.82;;
78148;SDS011;67396;42.664;23.382;2024-02-23T00:03:27;16.35;;;9.27;;
78148;SDS011;67396;42.664;23.382;2024-02-23T00:05:53;14.60;;;8.98;;
78148;SDS011;67396;42.664;23.382;2024-02-23T00:08:18;16.05;;;9.38;;
78148;SDS011;67396;42.664;23.382;2024-02-23T00:10:44;17.73;;;9.35;;
78148;SDS011;67396;42.664;23.382;2024-02-23T00:13:09;19.92;;;9.80;;
78148;SDS011;67396;42.664;23.382;2024-02-23T00:15:35;19.10;;;9.52;;
78148;SDS011;67396;42.664;23.382;2024-02-23T00:18:00;17.20;;;9.73;;
78148;SDS011;67396;42.664;23.382;2024-02-23T00:20:28;20.67;;;9.77;;
78148;SDS011;67396;42.664;23.382;2024-02-23T00:22:54;17.77;;;9.77;;
78148;SDS011;67396;42.664;23.382;2024-02-23T00:25:19;19.52;;;10.82;;
78148;SDS011;67396;42.664;23.382;2024-02-23T00:27:45;18.15;;;9.68;;
78148;SDS011;67396;42.664;23.382;2024-02-23T00:30:12;19.98;;;8.95;;
78148;SDS011;67396;42.664;23.382;2024-02-23T00:32:38;14.30;;;9.75;;
78148;SDS011;67396;42.664;23.382;2024-02-23T00:35:04;19.35;;;10.23;;
78148;SDS011;67396;42.664;23.382;2024-02-23T00:37:29;18.33;;;10.10;;
78148;SDS011;67396;42.664;23.382;2024-02-23T00:40:00;17.70;;;10.45;;
78148;SDS011;67396;42.664;23.382;2024-02-23T00:42:29;19.60;;;8.80;;
78148;SDS011;67396;42.664;23.382;2024-02-23T00:44:55;18.58;;;9.50;;
78148;SDS011;67396;42.664;23.382;2024-02-23T00:47:21;16.63;;;9.52;;
78148;SDS011;67396;42.664;23.382;2024-02-23T00:49:46;15.70;;;9.40;;
78148;SDS011;67396;42.664;23.382;2024-02-23T00:52:12;14.55;;;8.68;;
78148;SDS011;67396;42.664;23.382;2024-02-23T00:54:37;12.23;;;7.75;;
78148;SDS011;67396;42.664;23.382;2024-02-23T00:57:03;13.63;;;7.70;;
78148;SDS011;67396;42.664;23.382;2024-02-23T00:59:28;14.32;;;6.70;;
78148;SDS011;67396;42.664;23.382;2024-02-23T01:01:54;8.95;;;6.13;;
78148;SDS011;67396;42.664;23.382;2024-02-23T01:04:20;11.52;;;7.47;;
78148;SDS011;67396;42.664;23.382;2024-02-23T01:06:46;9.85;;;6.72;;
78148;SDS011;67396;42.664;23.382;2024-02-23T01:09:11;12.82;;;6.95;;
78148;SDS011;67396;42.664;23.382;2024-02-23T01:11:38;12.40;;;7.03;;
78148;SDS011;67396;42.664;23.382;2024-02-23T01:14:03;9.82;;;6.78;;
78148;SDS011;67396;42.664;23.382;2024-02-23T01:16:30;12.73;;;8.40;;
78148;SDS011;67396;42.664;23.382;2024-02-23T01:18:57;13.65;;;6.60;;
78148;SDS011;67396;42.664;23.382;2024-02-23T01:21:23;10.95;;;6.57;;
78148;SDS011;67396;42.664;23.382;2024-02-23T01:23:49;10.93;;;7.18;;
78148;SDS011;67396;42.664;23.382;2024-02-23T01:26:14;16.00;;;7.97;;
78148;SDS011;67396;42.664;23.382;2024-02-23T01:28:40;15.73;;;8.40;;
78148;SDS011;67396;42.664;23.382;2024-02-23T01:31:08;12.60;;;7.32;;
78148;SDS011;67396;42.664;23.382;2024-02-23T01:33:36;14.02;;;7.55;;
78148;SDS011;67396;42.664;23.382;2024-02-23T01:36:03;13.55;;;7.95;;
78148;SDS011;67396;42.664;23.382;2024-02-23T01:38:33;18.45;;;7.93;;
78148;SDS011;67396;42.664;23.382;2024-02-23T01:40:59;11.27;;;6.30;;
78148;SDS011;67396;42.664;23.382;2024-02-23T01:43:25;13.55;;;7.72;;
78148;SDS011;67396;42.664;23.382;2024-02-23T01:45:51;11.88;;;7.03;;
78148;SDS011;67396;42.664;23.382;2024-02-23T01:48:17;14.23;;;7.97;;
78148;SDS011;67396;42.664;23.382;2024-02-23T01:50:43;14.00;;;8.05;;
78148;SDS011;67396;42.664;23.382;2024-02-23T01:53:09;17.33;;;8.50;;
78148;SDS011;67396;42.664;23.382;2024-02-23T01:55:37;11.38;;;7.15;;
78148;SDS011;67396;42.664;23.382;2024-02-23T01:58:06;15.63;;;8.23;;
78148;SDS011;67396;42.664;23.382;2024-02-23T02:00:33;14.48;;;8.90;;
78148;SDS011;67396;42.664;23.382;2024-02-23T02:03:00;15.73;;;7.88;;
78148;SDS011;67396;42.664;23.382;2024-02-23T02:05:25;21.92;;;12.63;;
78148;SDS011;67396;42.664;23.382;2024-02-23T02:07:51;32.35;;;16.73;;
78148;SDS011;67396;42.664;23.382;2024-02-23T02:10:23;13.70;;;8.30;;
78148;SDS011;67396;42.664;23.382;2024-02-23T02:12:50;13.00;;;7.80;;
78148;SDS011;67396;42.664;23.382;2024-02-23T02:15:15;15.15;;;7.75;;
78148;SDS011;67396;42.664;23.382;2024-02-23T02:17:41;16.65;;;8.25;;
78148;SDS011;67396;42.664;23.382;2024-02-23T02:20:07;12.98;;;8.05;;
78148;SDS011;67396;42.664;23.382;2024-02-23T02:22:37;13.20;;;6.95;;
78148;SDS011;67396;42.664;23.382;2024-02-23T02:25:03;14.15;;;8.07;;
78148;SDS011;67396;42.664;23.382;2024-02-23T02:27:29;13.77;;;8.52;;
78148;SDS011;67396;42.664;23.382;2024-02-23T02:29:54;14.50;;;7.13;;
78148;SDS011;67396;42.664;23.382;2024-02-23T02:32:20;16.65;;;8.50;;
78148;SDS011;67396;42.664;23.382;2024-02-23T02:34:45;15.55;;;8.35;;
78148;SDS011;67396;42.664;23.382;2024-02-23T02:37:11;14.15;;;8.95;;
78148;SDS011;67396;42.664;23.382;2024-02-23T02:39:36;20.50;;;10.05;;
78148;SDS011;67396;42.664;23.382;2024-02-23T02:42:02;14.43;;;9.30;;
78148;SDS011;67396;42.664;23.382;2024-02-23T02:44:27;14.65;;;8.70;;
78148;SDS011;67396;42.664;23.382;2024-02-23T02:46:56;18.67;;;10.93;;
78148;SDS011;67396;42.664;23.382;2024-02-23T02:49:22;19.88;;;10.93;;
78148;SDS011;67396;42.664;23.382;2024-02-23T02:51:48;18.88;;;10.93;;
78148;SDS011;67396;42.664;23.382;2024-02-23T02:54:13;28.38;;;15.00;;
78148;SDS011;67396;42.664;23.382;2024-02-23T02:56:46;23.92;;;14.23;;
78148;SDS011;67396;42.664;23.382;2024-02-23T02:59:13;25.23;;;13.20;;
78148;SDS011;67396;42.664;23.382;2024-02-23T03:01:39;18.17;;;11.15;;
78148;SDS011;67396;42.664;23.382;2024-02-23T03:04:05;21.70;;;11.65;;
78148;SDS011;67396;42.664;23.382;2024-02-23T03:06:30;17.80;;;11.85;;
78148;SDS011;67396;42.664;23.382;2024-02-23T03:08:56;15.20;;;9.27;;
78148;SDS011;67396;42.664;23.382;2024-02-23T03:11:21;17.40;;;9.45;;
78148;SDS011;67396;42.664;23.382;2024-02-23T03:13:47;16.83;;;9.10;;
78148;SDS011;67396;42.664;23.382;2024-02-23T03:16:20;20.40;;;9.40;;
78148;SDS011;67396;42.664;23.382;2024-02-23T03:18:46;12.13;;;7.75;;
78148;SDS011;67396;42.664;23.382;2024-02-23T03:21:12;15.60;;;7.18;;
78148;SDS011;67396;42.664;23.382;2024-02-23T03:23:39;15.27;;;8.57;;
78148;SDS011;67396;42.664;23.382;2024-02-23T03:26:06;15.68;;;9.57;;
78148;SDS011;67396;42.664;23.382;2024-02-23T03:28:32;15.63;;;7.85;;
78148;SDS011;67396;42.664;23.382;2024-02-23T03:30:59;16.40;;;8.85;;
78148;SDS011;67396;42.664;23.382;2024-02-23T03:33:25;13.27;;;7.65;;
78148;SDS011;67396;42.664;23.382;2024-02-23T03:35:52;13.82;;;7.40;;
78148;SDS011;67396;42.664;23.382;2024-02-23T03:38:18;13.73;;;8.38;;
78148;SDS011;67396;42.664;23.382;2024-02-23T03:40:43;13.75;;;8.27;;
78148;SDS011;67396;42.664;23.382;2024-02-23T03:43:10;19.35;;;9.43;;
78148;SDS011;67396;42.664;23.382;2024-02-23T03:45:36;9.98;;;6.75;;
78148;SDS011;67396;42.664;23.382;2024-02-23T03:48:02;11.07;;;7.00;;
78148;SDS011;67396;42.664;23.382;2024-02-23T03:50:29;12.18;;;7.53;;
78148;SDS011;67396;42.664;23.382;2024-02-23T03:52:55;12.75;;;7.88;;
78148;SDS011;67396;42.664;23.382;2024-02-23T03:55:20;14.63;;;7.85;;
78148;SDS011;67396;42.664;23.382;2024-02-23T03:57:47;11.27;;;6.82;;
78148;SDS011;67396;42.664;23.382;2024-02-23T04:00:12;13.32;;;6.95;;
78148;SDS011;67396;42.664;23.382;2024-02-23T04:02:38;15.82;;;7.88;;
78148;SDS011;67396;42.664;23.382;2024-02-23T04:05:04;14.23;;;7.65;;
78148;SDS011;67396;42.664;23.382;2024-02-23T04:07:30;15.30;;;8.52;;
78148;SDS011;67396;42.664;23.382;2024-02-23T04:09:56;15.48;;;8.70;;
78148;SDS011;67396;42.664;23.382;2024-02-23T04:12:25;14.45;;;7.45;;
78148;SDS011;67396;42.664;23.382;2024-02-23T04:14:50;14.82;;;7.57;;
78148;SDS011;67396;42.664;23.382;2024-02-23T04:17:16;14.85;;;7.78;;
78148;SDS011;67396;42.664;23.382;2024-02-23T04:19:42;11.80;;;6.82;;
78148;SDS011;67396;42.664;23.382;2024-02-23T04:22:08;13.00;;;7.85;;
78148;SDS011;67396;42.664;23.382;2024-02-23T04:24:38;14.93;;;7.78;;
78148;SDS011;67396;42.664;23.382;2024-02-23T04:27:07;13.20;;;7.43;;
78148;SDS011;67396;42.664;23.382;2024-02-23T04:29:33;12.60;;;7.20;;
78148;SDS011;67396;42.664;23.382;2024-02-23T04:32:02;10.85;;;6.95;;
78148;SDS011;67396;42.664;23.382;2024-02-23T04:34:29;13.00;;;7.70;;
78148;SDS011;67396;42.664;23.382;2024-02-23T04:36:54;12.13;;;7.30;;
78148;SDS011;67396;42.664;23.382;2024-02-23T04:39:20;13.00;;;7.97;;
78148;SDS011;67396;42.664;23.382;2024-02-23T04:41:46;11.30;;;7.60;;
78148;SDS011;67396;42.664;23.382;2024-02-23T04:44:12;11.40;;;6.75;;
78148;SDS011;67396;42.664;23.382;2024-02-23T04:46:38;14.02;;;8.20;;
78148;SDS011;67396;42.664;23.382;2024-02-23T04:49:03;14.30;;;8.18;;
78148;SDS011;67396;42.664;23.382;2024-02-23T04:51:29;11.43;;;7.03;;
78148;SDS011;67396;42.664;23.382;2024-02-23T04:53:55;12.77;;;8.23;;
78148;SDS011;67396;42.664;23.382;2024-02-23T04:56:20;12.48;;;6.90;;
78148;SDS011;67396;42.664;23.382;2024-02-23T04:58:46;16.48;;;7.80;;
78148;SDS011;67396;42.664;23.382;2024-02-23T05:01:12;10.18;;;6.32;;
78148;SDS011;67396;42.664;23.382;2024-02-23T05:03:37;14.88;;;7.65;;
78148;SDS011;67396;42.664;23.382;2024-02-23T05:06:03;13.40;;;7.75;;
78148;SDS011;67396;42.664;23.382;2024-02-23T05:08:29;13.13;;;6.63;;
78148;SDS011;67396;42.664;23.382;2024-02-23T05:10:56;18.80;;;8.93;;
78148;SDS011;67396;42.664;23.382;2024-02-23T05:13:22;13.50;;;7.22;;
78148;SDS011;67396;42.664;23.382;2024-02-23T05:15:48;11.52;;;7.03;;
78148;SDS011;67396;42.664;23.382;2024-02-23T05:18:13;15.73;;;8.00;;
78148;SDS011;67396;42.664;23.382;2024-02-23T05:20:39;16.80;;;7.82;;
78148;SDS011;67396;42.664;23.382;2024-02-23T05:23:04;12.98;;;7.13;;
78148;SDS011;67396;42.664;23.382;2024-02-23T05:25:30;12.68;;;7.97;;
78148;SDS011;67396;42.664;23.382;2024-02-23T05:27:55;18.77;;;10.73;;
78148;SDS011;67396;42.664;23.382;2024-02-23T05:30:21;16.17;;;9.55;;
78148;SDS011;67396;42.664;23.382;2024-02-23T05:32:47;18.13;;;9.73;;
78148;SDS011;67396;42.664;23.382;2024-02-23T05:35:13;20.38;;;10.95;;
78148;SDS011;67396;42.664;23.382;2024-02-23T05:37:41;16.25;;;9.38;;
78148;SDS011;67396;42.664;23.382;2024-02-23T05:40:07;15.25;;;9.23;;
78148;SDS011;67396;42.664;23.382;2024-02-23T05:42:38;19.48;;;10.68;;
78148;SDS011;67396;42.664;23.382;2024-02-23T05:45:04;24.35;;;11.07;;
78148;SDS011;67396;42.664;23.382;2024-02-23T05:47:34;18.55;;;11.13;;
78148;SDS011;67396;42.664;23.382;2024-02-23T05:50:00;20.05;;;11.70;;
78148;SDS011;67396;42.664;23.382;2024-02-23T05:52:27;23.30;;;11.48;;
78148;SDS011;67396;42.664;23.382;2024-02-23T05:54:52;22.98;;;10.93;;
78148;SDS011;67396;42.664;23.382;2024-02-23T05:57:21;19.48;;;9.82;;
78148;SDS011;67396;42.664;23.382;2024-02-23T05:59:46;22.58;;;12.07;;
78148;SDS011;67396;42.664;23.382;2024-02-23T06:02:12;22.20;;;11.60;;
78148;SDS011;67396;42.664;23.382;2024-02-23T06:04:39;23.95;;;12.75;;
78148;SDS011;67396;42.664;23.382;2024-02-23T06:07:05;23.67;;;11.43;;
78148;SDS011;67396;42.664;23.382;2024-02-23T06:09:31;21.80;;;11.43;;
78148;SDS011;67396;42.664;23.382;2024-02-23T06:11:56;24.15;;;11.32;;
78148;SDS011;67396;42.664;23.382;2024-02-23T06:14:22;18.58;;;9.55;;
78148;SDS011;67396;42.664;23.382;2024-02-23T06:16:48;19.05;;;9.93;;
78148;SDS011;67396;42.664;23.382;2024-02-23T06:19:14;19.23;;;9.57;;
78148;SDS011;67396;42.664;23.382;2024-02-23T06:21:40;18.10;;;10.25;;
78148;SDS011;67396;42.664;23.382;2024-02-23T06:24:06;13.90;;;8.05;;
78148;SDS011;67396;42.664;23.382;2024-02-23T06:26:33;16.67;;;9.18;;
78148;SDS011;67396;42.664;23.382;2024-02-23T06:28:59;100.70;;;52.95;;
78148;SDS011;67396;42.664;23.382;2024-02-23T06:31:25;26.17;;;14.27;;
78148;SDS011;67396;42.664;23.382;2024-02-23T06:33:50;23.13;;;12.63;;
78148;SDS011;67396;42.664;23.382;2024-02-23T06:36:17;17.70;;;11.07;;
78148;SDS011;67396;42.664;23.382;2024-02-23T06:38:44;16.25;;;10.00;;
78148;SDS011;67396;42.664;23.382;2024-02-23T06:41:11;19.30;;;10.52;;
78148;SDS011;67396;42.664;23.382;2024-02-23T06:43:36;21.02;;;11.30;;
78148;SDS011;67396;42.664;23.382;2024-02-23T06:46:09;18.77;;;11.68;;
78148;SDS011;67396;42.664;23.382;2024-02-23T06:48:35;23.50;;;10.80;;
78148;SDS011;67396;42.664;23.382;2024-02-23T06:51:07;20.83;;;11.52;;
78148;SDS011;67396;42.664;23.382;2024-02-23T06:53:35;21.60;;;12.82;;
78148;SDS011;67396;42.664;23.382;2024-02-23T06:56:01;25.73;;;12.25;;
78148;SDS011;67396;42.664;23.382;2024-02-23T06:58:27;19.42;;;9.50;;
78148;SDS011;67396;42.664;23.382;2024-02-23T07:00:53;16.80;;;9.98;;
78148;SDS011;67396;42.664;23.382;2024-02-23T07:03:18;18.08;;;10.77;;
78148;SDS011;67396;42.664;23.382;2024-02-23T07:05:44;18.30;;;10.63;;
78148;SDS011;67396;42.664;23.382;2024-02-23T07:08:11;20.05;;;11.70;;
78148;SDS011;67396;42.664;23.382;2024-02-23T07:10:37;22.08;;;12.18;;
78148;SDS011;67396;42.664;23.382;2024-02-23T07:13:02;24.75;;;12.48;;
78148;SDS011;67396;42.664;23.382;2024-02-23T07:15:28;24.30;;;13.02;;
78148;SDS011;67396;42.664;23.382;2024-02-23T07:17:55;23.52;;;13.80;;
78148;SDS011;67396;42.664;23.382;2024-02-23T07:20:21;23.55;;;12.90;;
78148;SDS011;67396;42.664;23.382;2024-02-23T07:22:47;21.55;;;13.50;;
78148;SDS011;67396;42.664;23.382;2024-02-23T07:25:16;24.05;;;12.27;;
78148;SDS011;67396;42.664;23.382;2024-02-23T07:27:44;23.98;;;12.80;;
78148;SDS011;67396;42.664;23.382;2024-02-23T07:30:10;20.40;;;12.57;;
78148;SDS011;67396;42.664;23.382;2024-02-23T07:32:36;17.98;;;11.57;;
78148;SDS011;67396;42.664;23.382;2024-02-23T07:35:02;20.33;;;11.55;;
78148;SDS011;67396;42.664;23.382;2024-02-23T07:37:29;21.77;;;12.07;;
78148;SDS011;67396;42.664;23.382;2024-02-23T07:39:54;20.48;;;10.82;;
78148;SDS011;67396;42.664;23.382;2024-02-23T07:42:20;18.00;;;10.55;;
78148;SDS011;67396;42.664;23.382;2024-02-23T07:44:46;17.35;;;9.70;;
78148;SDS011;67396;42.664;23.382;2024-02-23T07:47:12;15.25;;;8.98;;
78148;SDS011;67396;42.664;23.382;2024-02-23T07:49:37;15.77;;;9.77;;
78148;SDS011;67396;42.664;23.382;2024-02-23T07:52:05;11.57;;;7.57;;
78148;SDS011;67396;42.664;23.382;2024-02-23T07:54:32;17.20;;;10.18;;
78148;SDS011;67396;42.664;23.382;2024-02-23T07:56:57;14.07;;;8.55;;
78148;SDS011;67396;42.664;23.382;2024-02-23T07:59:24;14.50;;;9.07;;
78148;SDS011;67396;42.664;23.382;2024-02-23T08:01:49;14.38;;;8.82;;
78148;SDS011;67396;42.664;23.382;2024-02-23T08:04:15;18.48;;;9.32;;
78148;SDS011;67396;42.664;23.382;2024-02-23T08:06:41;13.90;;;7.82;;
78148;SDS011;67396;42.664;23.382;2024-02-23T08:09:08;15.00;;;8.20;;
78148;SDS011;67396;42.664;23.382;2024-02-23T08:11:34;12.43;;;7.43;;
78148;SDS011;67396;42.664;23.382;2024-02-23T08:13:59;13.20;;;7.65;;
78148;SDS011;67396;42.664;23.382;2024-02-23T08:16:26;15.80;;;8.52;;
78148;SDS011;67396;42.664;23.382;2024-02-23T08:19:01;15.45;;;9.88;;
78148;SDS011;67396;42.664;23.382;2024-02-23T08:21:26;15.48;;;8.93;;
78148;SDS011;67396;42.664;23.382;2024-02-23T08:23:52;13.18;;;8.20;;
78148;SDS011;67396;42.664;23.382;2024-02-23T08:26:18;15.30;;;9.05;;
78148;SDS011;67396;42.664;23.382;2024-02-23T08:28:43;17.92;;;9.05;;
78148;SDS011;67396;42.664;23.382;2024-02-23T08:31:09;13.52;;;7.18;;
78148;SDS011;67396;42.664;23.382;2024-02-23T08:33:34;12.40;;;8.88;;
78148;SDS011;67396;42.664;23.382;2024-02-23T08:36:00;18.50;;;9.20;;
78148;SDS011;67396;42.664;23.382;2024-02-23T08:38:25;14.30;;;8.52;;
78148;SDS011;67396;42.664;23.382;2024-02-23T08:40:51;20.45;;;10.32;;
78148;SDS011;67396;42.664;23.382;2024-02-23T08:43:17;14.55;;;8.73;;
78148;SDS011;67396;42.664;23.382;2024-02-23T08:45:42;20.25;;;9.18;;
78148;SDS011;67396;42.664;23.382;2024-02-23T08:48:08;16.88;;;8.65;;
78148;SDS011;67396;42.664;23.382;2024-02-23T08:50:33;13.32;;;8.65;;
78148;SDS011;67396;42.664;23.382;2024-02-23T08:52:59;16.92;;;9.20;;
78148;SDS011;67396;42.664;23.382;2024-02-23T08:55:25;13.68;;;7.93;;
78148;SDS011;67396;42.664;23.382;2024-02-23T08:57:51;13.63;;;8.50;;
78148;SDS011;67396;42.664;23.382;2024-02-23T09:00:16;13.98;;;8.82;;
78148;SDS011;67396;42.664;23.382;2024-02-23T09:02:42;14.10;;;8.13;;
78148;SDS011;67396;42.664;23.382;2024-02-23T09:05:08;14.15;;;8.30;;
78148;SDS011;67396;42.664;23.382;2024-02-23T09:07:34;22.23;;;9.93;;
78148;SDS011;67396;42.664;23.382;2024-02-23T09:10:00;14.43;;;7.72;;
78148;SDS011;67396;42.664;23.382;2024-02-23T09:12:26;14.55;;;8.13;;
78148;SDS011;67396;42.664;23.382;2024-02-23T09:14:52;14.30;;;8.18;;
78148;SDS011;67396;42.664;23.382;2024-02-23T09:17:17;13.13;;;7.75;;
78148;SDS011;67396;42.664;23.382;2024-02-23T09:19:45;16.83;;;8.55;;
78148;SDS011;67396;42.664;23.382;2024-02-23T09:22:11;12.95;;;6.45;;
78148;SDS011;67396;42.664;23.382;2024-02-23T09:24:39;11.75;;;6.60;;
78148;SDS011;67396;42.664;23.382;2024-02-23T09:27:08;11.55;;;6.93;;
78148;SDS011;67396;42.664;23.382;2024-02-23T09:29:34;10.75;;;6.60;;
78148;SDS011;67396;42.664;23.382;2024-02-23T09:32:00;10.07;;;6.45;;
78148;SDS011;67396;42.664;23.382;2024-02-23T09:34:26;14.95;;;6.57;;
78148;SDS011;67396;42.664;23.382;2024-02-23T09:36:52;11.38;;;6.57;;
78148;SDS011;67396;42.664;23.382;2024-02-23T09:39:17;11.27;;;6.25;;
78148;SDS011;67396;42.664;23.382;2024-02-23T09:41:43;8.85;;;5.80;;
78148;SDS011;67396;42.664;23.382;2024-02-23T09:44:09;10.65;;;5.38;;
78148;SDS011;67396;42.664;23.382;2024-02-23T09:46:37;11.35;;;5.53;;
78148;SDS011;67396;42.664;23.382;2024-02-23T09:49:05;10.07;;;4.45;;
78148;SDS011;67396;42.664;23.382;2024-02-23T09:51:33;9.70;;;4.78;;
78148;SDS011;67396;42.664;23.382;2024-02-23T09:54:00;6.45;;;4.28;;
78148;SDS011;67396;42.664;23.382;2024-02-23T09:56:28;8.88;;;4.28;;
78148;SDS011;67396;42.664;23.382;2024-02-23T09:58:59;9.05;;;4.07;;
78148;SDS011;67396;42.664;23.382;2024-02-23T10:01:28;4.18;;;3.05;;
78148;SDS011;67396;42.664;23.382;2024-02-23T10:03:56;6.80;;;4.13;;
78148;SDS011;67396;42.664;23.382;2024-02-23T10:06:23;8.10;;;3.72;;
78148;SDS011;67396;42.664;23.382;2024-02-23T10:08:52;6.53;;;3.85;;
78148;SDS011;67396;42.664;23.382;2024-02-23T10:11:21;4.82;;;3.30;;
78148;SDS011;67396;42.664;23.382;2024-02-23T10:13:48;5.70;;;3.70;;
78148;SDS011;67396;42.664;23.382;2024-02-23T10:16:17;6.40;;;3.40;;
78148;SDS011;67396;42.664;23.382;2024-02-23T10:18:45;3.85;;;2.75;;
78148;SDS011;67396;42.664;23.382;2024-02-23T10:21:17;4.88;;;3.60;;
78148;SDS011;67396;42.664;23.382;2024-02-23T10:23:46;4.97;;;2.70;;
78148;SDS011;67396;42.664;23.382;2024-02-23T10:26:13;5.25;;;2.55;;
78148;SDS011;67396;42.664;23.382;2024-02-23T10:28:38;4.65;;;2.97;;
78148;SDS011;67396;42.664;23.382;2024-02-23T10:31:04;8.35;;;3.05;;
78148;SDS011;67396;42.664;23.382;2024-02-23T10:33:30;4.43;;;2.78;;
78148;SDS011;67396;42.664;23.382;2024-02-23T10:35:56;4.05;;;2.40;;
78148;SDS011;67396;42.664;23.382;2024-02-23T10:38:28;5.15;;;3.13;;
78148;SDS011;67396;42.664;23.382;2024-02-23T10:40:57;10.23;;;3.80;;
78148;SDS011;67396;42.664;23.382;2024-02-23T10:43:26;6.22;;;2.63;;
78148;SDS011;67396;42.664;23.382;2024-02-23T10:45:58;4.32;;;2.67;;
78148;SDS011;67396;42.664;23.382;2024-02-23T10:48:27;3.95;;;2.80;;
78148;SDS011;67396;42.664;23.382;2024-02-23T10:50:54;4.22;;;2.35;;
78148;SDS011;67396;42.664;23.382;2024-02-23T10:53:21;9.70;;;2.70;;
78148;SDS011;67396;42.664;23.382;2024-02-23T10:55:50;4.63;;;2.45;;
78148;SDS011;67396;42.664;23.382;2024-02-23T10:58:22;5.90;;;2.85;;
78148;SDS011;67396;42.664;23.382;2024-02-23T11:00:47;3.58;;;2.22;;
78148;SDS011;67396;42.664;23.382;2024-02-23T11:03:13;4.53;;;3.17;;
78148;SDS011;67396;42.664;23.382;2024-02-23T11:05:40;4.55;;;2.85;;
78148;SDS011;67396;42.664;23.382;2024-02-23T11:08:06;4.00;;;2.65;;
78148;SDS011;67396;42.664;23.382;2024-02-23T11:10:40;3.65;;;2.22;;
78148;SDS011;67396;42.664;23.382;2024-02-23T11:13:07;3.25;;;2.20;;
78148;SDS011;67396;42.664;23.382;2024-02-23T11:15:33;6.03;;;2.22;;
78148;SDS011;67396;42.664;23.382;2024-02-23T11:18:20;6.55;;;3.13;;
78148;SDS011;67396;42.664;23.382;2024-02-23T11:21:02;4.22;;;2.42;;
78148;SDS011;67396;42.664;23.382;2024-02-23T11:23:41;4.10;;;2.30;;
78148;SDS011;67396;42.664;23.382;2024-02-23T11:26:13;3.75;;;2.95;;
78148;SDS011;67396;42.664;23.382;2024-02-23T11:28:51;3.60;;;2.38;;
78148;SDS011;67396;42.664;23.382;2024-02-23T11:31:19;3.67;;;1.88;;
78148;SDS011;67396;42.664;23.382;2024-02-23T11:33:52;5.85;;;2.63;;
78148;SDS011;67396;42.664;23.382;2024-02-23T11:36:32;1.95;;;1.75;;
78148;SDS011;67396;42.664;23.382;2024-02-23T11:38:58;2.78;;;2.20;;
78148;SDS011;67396;42.664;23.382;2024-02-23T11:41:25;3.10;;;2.30;;
78148;SDS011;67396;42.664;23.382;2024-02-23T11:43:52;4.88;;;2.45;;
78148;SDS011;67396;42.664;23.382;2024-02-23T11:46:19;4.15;;;3.15;;
78148;SDS011;67396;42.664;23.382;2024-02-23T11:48:45;4.50;;;3.10;;
78148;SDS011;67396;42.664;23.382;2024-02-23T11:51:18;3.28;;;1.85;;
78148;SDS011;67396;42.664;23.382;2024-02-23T11:53:45;3.25;;;1.75;;
78148;SDS011;67396;42.664;23.382;2024-02-23T11:56:12;4.75;;;2.58;;
78148;SDS011;67396;42.664;23.382;2024-02-23T11:58:39;4.22;;;2.22;;
78148;SDS011;67396;42.664;23.382;2024-02-23T12:01:05;5.63;;;2.40;;
78148;SDS011;67396;42.664;23.382;2024-02-23T12:03:32;12.45;;;2.80;;
78148;SDS011;67396;42.664;23.382;2024-02-23T12:05:58;2.80;;;2.22;;
78148;SDS011;67396;42.664;23.382;2024-02-23T12:08:29;5.60;;;2.53;;
78148;SDS011;67396;42.664;23.382;2024-02-23T12:10:57;5.05;;;2.47;;
78148;SDS011;67396;42.664;23.382;2024-02-23T12:13:25;2.53;;;1.88;;
78148;SDS011;67396;42.664;23.382;2024-02-23T12:15:52;3.00;;;1.55;;
78148;SDS011;67396;42.664;23.382;2024-02-23T12:18:21;2.80;;;2.00;;
78148;SDS011;67396;42.664;23.382;2024-02-23T12:21:00;3.28;;;2.03;;
78148;SDS011;67396;42.664;23.382;2024-02-23T12:23:27;2.92;;;2.03;;
78148;SDS011;67396;42.664;23.382;2024-02-23T12:26:02;3.67;;;1.95;;
78148;SDS011;67396;42.664;23.382;2024-02-23T12:28:28;4.72;;;2.33;;
78148;SDS011;67396;42.664;23.382;2024-02-23T12:31:01;2.90;;;1.95;;
78148;SDS011;67396;42.664;23.382;2024-02-23T12:33:36;19.05;;;2.95;;
78148;SDS011;67396;42.664;23.382;2024-02-23T12:36:05;2.75;;;2.00;;
78148;SDS011;67396;42.664;23.382;2024-02-23T12:38:31;11.30;;;2.05;;
78148;SDS011;67396;42.664;23.382;2024-02-23T12:40:57;5.22;;;2.38;;
78148;SDS011;67396;42.664;23.382;2024-02-23T12:43:23;4.05;;;2.38;;
78148;SDS011;67396;42.664;23.382;2024-02-23T12:45:50;2.50;;;2.20;;
78148;SDS011;67396;42.664;23.382;2024-02-23T12:48:16;2.15;;;1.58;;
78148;SDS011;67396;42.664;23.382;2024-02-23T12:50:42;4.18;;;2.28;;
78148;SDS011;67396;42.664;23.382;2024-02-23T12:53:09;2.92;;;1.50;;
78148;SDS011;67396;42.664;23.382;2024-02-23T12:55:55;4.25;;;1.67;;
78148;SDS011;67396;42.664;23.382;2024-02-23T12:58:21;2.95;;;2.00;;
78148;SDS011;67396;42.664;23.382;2024-02-23T13:00:46;3.55;;;2.08;;
78148;SDS011;67396;42.664;23.382;2024-02-23T13:03:12;3.65;;;2.17;;
78148;SDS011;67396;42.664;23.382;2024-02-23T13:05:37;3.03;;;2.13;;
78148;SDS011;67396;42.664;23.382;2024-02-23T13:08:03;3.33;;;1.92;;
78148;SDS011;67396;42.664;23.382;2024-02-23T13:10:29;5.18;;;1.75;;
78148;SDS011;67396;42.664;23.382;2024-02-23T13:12:54;3.47;;;1.60;;
78148;SDS011;67396;42.664;23.382;2024-02-23T13:15:20;2.90;;;2.00;;
78148;SDS011;67396;42.664;23.382;2024-02-23T13:17:45;2.47;;;1.80;;
78148;SDS011;67396;42.664;23.382;2024-02-23T13:20:11;3.33;;;1.70;;
78148;SDS011;67396;42.664;23.382;2024-02-23T13:22:38;2.10;;;1.60;;
78148;SDS011;67396;42.664;23.382;2024-02-23T13:25:03;3.05;;;1.95;;
78148;SDS011;67396;42.664;23.382;2024-02-23T13:27:29;3.65;;;1.92;;
78148;SDS011;67396;42.664;23.382;2024-02-23T13:29:55;2.85;;;1.63;;
78148;SDS011;67396;42.664;23.382;2024-02-23T13:32:20;3.03;;;2.10;;
78148;SDS011;67396;42.664;23.382;2024-02-23T13:34:46;2.95;;;1.50;;
78148;SDS011;67396;42.664;23.382;2024-02-23T13:37:11;2.33;;;1.75;;
78148;SDS011;67396;42.664;23.382;2024-02-23T13:39:37;3.10;;;1.85;;
78148;SDS011;67396;42.664;23.382;2024-02-23T13:42:03;3.20;;;1.80;;
78148;SDS011;67396;42.664;23.382;2024-02-23T13:44:30;2.55;;;1.67;;
78148;SDS011;67396;42.664;23.382;2024-02-23T13:46:56;5.07;;;1.83;;
78148;SDS011;67396;42.664;23.382;2024-02-23T13:49:21;3.15;;;1.63;;
78148;SDS011;67396;42.664;23.382;2024-02-23T13:51:47;6.30;;;1.90;;
78148;SDS011;67396;42.664;23.382;2024-02-23T13:54:12;2.65;;;1.80;;
78148;SDS011;67396;42.664;23.382;2024-02-23T13:56:38;2.70;;;2.20;;
78148;SDS011;67396;42.664;23.382;2024-02-23T13:59:04;2.35;;;1.60;;
78148;SDS011;67396;42.664;23.382;2024-02-23T14:01:29;1.80;;;1.33;;
78148;SDS011;67396;42.664;23.382;2024-02-23T14:03:55;5.43;;;2.33;;
78148;SDS011;67396;42.664;23.382;2024-02-23T14:06:20;2.83;;;1.88;;
78148;SDS011;67396;42.664;23.382;2024-02-23T14:08:46;2.40;;;1.80;;
78148;SDS011;67396;42.664;23.382;2024-02-23T14:11:13;6.18;;;1.85;;
78148;SDS011;67396;42.664;23.382;2024-02-23T14:13:39;4.47;;;1.88;;
78148;SDS011;67396;42.664;23.382;2024-02-23T14:16:04;3.60;;;1.83;;
78148;SDS011;67396;42.664;23.382;2024-02-23T14:18:31;6.90;;;2.28;;
78148;SDS011;67396;42.664;23.382;2024-02-23T14:21:01;3.45;;;2.13;;